createdAt,value
2023-01-08T00:01:17.476Z,99874.47
2023-01-08T00:03:45.106Z,99870.41
2023-01-08T00:06:16.011Z,99875.53
2023-01-08T00:08:44.044Z,99871.16
2023-01-08T00:11:11.768Z,99864.13
2023-01-08T00:13:39.393Z,99869.06
2023-01-08T00:16:10.920Z,99875.59
2023-01-08T00:18:38.762Z,99871.16
2023-01-08T00:21:06.795Z,99866.59
2023-01-08T00:23:34.299Z,99865.63
2023-01-08T00:26:02.288Z,99858.75
2023-01-08T00:28:29.763Z,99869.25
2023-01-08T00:30:57.295Z,99866.88
2023-01-08T00:33:26.038Z,99868.50
2023-01-08T00:35:53.518Z,99858.72
2023-01-08T00:38:20.930Z,99857.06
2023-01-08T00:40:49.603Z,99860.19
2023-01-08T00:43:16.991Z,99845.56
2023-01-08T00:45:44.640Z,99854.56
2023-01-08T00:48:12.457Z,99844.03
2023-01-08T00:50:41.121Z,99840.00
2023-01-08T00:53:08.639Z,99831.66
2023-01-08T00:55:35.984Z,99844.75
2023-01-08T00:58:03.341Z,99835.47
2023-01-08T01:00:30.727Z,99829.28
2023-01-08T01:02:59.262Z,99821.59
2023-01-08T01:05:26.689Z,99816.09
2023-01-08T01:07:55.453Z,99813.25
2023-01-08T01:10:22.828Z,99817.22
2023-01-08T01:12:50.615Z,99813.59
2023-01-08T01:15:19.342Z,99806.66
2023-01-08T01:17:47.685Z,99798.41
2023-01-08T01:20:17.087Z,99791.28
2023-01-08T01:22:44.923Z,99789.28
2023-01-08T01:25:13.739Z,99791.38
2023-01-08T01:27:41.119Z,99789.41
2023-01-08T01:30:09.821Z,99798.03
2023-01-08T01:32:37.173Z,99794.03
2023-01-08T01:35:05.082Z,99803.56
2023-01-08T01:37:32.752Z,99806.50
2023-01-08T01:40:00.176Z,99812.53
2023-01-08T01:42:45.650Z,99808.91
2023-01-08T01:45:18.145Z,99815.06
2023-01-08T01:47:48.505Z,99808.03
2023-01-08T01:50:20.568Z,99807.56
2023-01-08T01:52:54.795Z,99804.06
2023-01-08T01:55:22.298Z,99792.91
2023-01-08T01:57:59.194Z,99795.75
2023-01-08T02:00:27.549Z,99799.44
2023-01-08T02:02:56.689Z,99794.59
2023-01-08T02:05:28.199Z,99801.66
2023-01-08T02:08:02.357Z,99787.59
2023-01-08T02:10:36.097Z,99789.56
2023-01-08T02:13:09.186Z,99790.25
2023-01-08T02:15:44.521Z,99772.53
2023-01-08T02:18:18.870Z,99770.75
2023-01-08T02:20:51.045Z,99764.53
2023-01-08T02:23:27.687Z,99764.25
2023-01-08T02:26:11.645Z,99767.88
2023-01-08T02:28:43.411Z,99758.25
2023-01-08T02:31:13.028Z,99752.94
2023-01-08T02:33:40.526Z,99742.94
2023-01-08T02:36:38.907Z,99750.00
2023-01-08T02:39:17.885Z,99753.41
2023-01-08T02:41:55.668Z,99759.88
2023-01-08T02:44:30.922Z,99756.81
2023-01-08T02:47:01.568Z,99749.03
2023-01-08T02:49:34.614Z,99753.03
2023-01-08T02:52:04.517Z,99760.81
2023-01-08T02:54:35.252Z,99764.44
2023-01-08T02:57:07.890Z,99767.97
2023-01-08T02:59:38.659Z,99762.34
2023-01-08T03:02:07.596Z,99763.97
2023-01-08T03:04:38.782Z,99762.06
2023-01-08T03:07:06.211Z,99758.72
2023-01-08T03:09:33.796Z,99759.41
2023-01-08T03:12:07.682Z,99759.00
2023-01-08T03:14:41.563Z,99754.06
2023-01-08T03:17:15.318Z,99761.66
2023-01-08T03:19:45.436Z,99752.19
2023-01-08T03:22:16.579Z,99753.88
2023-01-08T03:24:48.286Z,99750.81
2023-01-08T03:27:19.827Z,99743.03
2023-01-08T03:29:50.239Z,99747.22
2023-01-08T03:32:20.175Z,99739.22
2023-01-08T03:34:51.015Z,99741.31
2023-01-08T03:37:24.164Z,99734.66
2023-01-08T03:39:55.899Z,99742.66
2023-01-08T03:42:26.511Z,99738.44
2023-01-08T03:44:53.918Z,99726.47
2023-01-08T03:47:23.800Z,99720.56
2023-01-08T03:49:53.638Z,99725.81
2023-01-08T03:52:24.849Z,99714.41
2023-01-08T03:54:52.775Z,99710.84
2023-01-08T03:57:20.505Z,99700.19
2023-01-08T03:59:49.436Z,99701.16
2023-01-08T04:02:17.800Z,99698.31
2023-01-08T04:04:45.357Z,99695.47
2023-01-08T04:07:13.304Z,99693.94
2023-01-08T04:09:40.708Z,99700.22
2023-01-08T04:12:08.230Z,99673.94
2023-01-08T04:14:35.634Z,99665.88
2023-01-08T04:17:04.414Z,99675.31
2023-01-08T04:19:31.911Z,99665.19
2023-01-08T04:21:59.270Z,99663.84
2023-01-08T04:24:26.672Z,99660.50
2023-01-08T04:26:54.068Z,99660.41
2023-01-08T04:29:21.514Z,99654.72
2023-01-08T04:31:48.902Z,99665.38
2023-01-08T04:34:17.582Z,99676.03
2023-01-08T04:36:44.997Z,99687.06
2023-01-08T04:39:12.793Z,99684.78
2023-01-08T04:41:40.196Z,99685.63
2023-01-08T04:44:07.569Z,99683.56
2023-01-08T04:46:35.082Z,99684.19
2023-01-08T04:49:02.471Z,99686.09
2023-01-08T04:51:31.167Z,99681.34
2023-01-08T04:53:58.541Z,99682.91
2023-01-08T04:56:25.947Z,99677.38
2023-01-08T04:58:53.438Z,99673.84
2023-01-08T05:01:23.445Z,99676.91
2023-01-08T05:03:54.627Z,99676.69
2023-01-08T05:06:22.045Z,99676.31
2023-01-08T05:08:50.720Z,99674.59
2023-01-08T05:11:18.106Z,99676.97
2023-01-08T05:13:48.813Z,99672.41
2023-01-08T05:16:16.647Z,99661.84
2023-01-08T05:18:44.367Z,99662.59
2023-01-08T05:21:13.236Z,99652.03
2023-01-08T05:23:40.920Z,99651.28
2023-01-08T05:26:09.637Z,99639.94
2023-01-08T05:28:37.016Z,99650.72
2023-01-08T05:31:04.555Z,99648.66
2023-01-08T05:33:32.659Z,99657.09
2023-01-08T05:35:59.970Z,99669.56
2023-01-08T05:38:27.322Z,99662.44
2023-01-08T05:40:54.926Z,99646.91
2023-01-08T05:43:23.609Z,99658.25
2023-01-08T05:45:51.041Z,99653.78
2023-01-08T05:48:18.458Z,99651.88
2023-01-08T05:50:45.828Z,99651.78
2023-01-08T05:53:13.217Z,99658.25
2023-01-08T05:55:40.603Z,99644.84
2023-01-08T05:58:07.983Z,99644.09
2023-01-08T06:00:36.659Z,99638.84
2023-01-08T06:03:04.133Z,99649.06
2023-01-08T06:05:32.238Z,99636.47
2023-01-08T06:07:59.705Z,99637.22
2023-01-08T06:10:27.907Z,99630.00
2023-01-08T06:12:55.372Z,99634.94
2023-01-08T06:15:22.771Z,99631.16
2023-01-08T06:17:51.436Z,99635.16
2023-01-08T06:20:18.995Z,99630.00
2023-01-08T06:22:46.389Z,99641.06
2023-01-08T06:25:13.762Z,99646.66
2023-01-08T06:27:41.137Z,99642.19
2023-01-08T06:30:09.839Z,99629.34
2023-01-08T06:32:37.230Z,99637.44
2023-01-08T06:35:06.751Z,99640.38
2023-01-08T06:37:34.093Z,99630.78
2023-01-08T06:40:01.518Z,99639.72
2023-01-08T06:42:28.925Z,99645.59
2023-01-08T06:44:56.312Z,99642.88
2023-01-08T06:47:23.681Z,99647.91
2023-01-08T06:49:51.036Z,99651.69
2023-01-08T06:52:19.722Z,99646.94
2023-01-08T06:54:47.065Z,99651.97
2023-01-08T06:57:14.428Z,99669.22
2023-01-08T06:59:41.856Z,99657.41
2023-01-08T07:02:14.143Z,99668.72
2023-01-08T07:04:41.691Z,99672.63
2023-01-08T07:07:09.485Z,99669.19
2023-01-08T07:09:38.202Z,99670.94
2023-01-08T07:12:06.013Z,99665.09
2023-01-08T07:14:33.373Z,99665.38
2023-01-08T07:17:00.717Z,99662.41
2023-01-08T07:19:28.056Z,99666.34
2023-01-08T07:21:55.418Z,99679.56
2023-01-08T07:24:22.784Z,99677.00
2023-01-08T07:26:51.467Z,99665.84
2023-01-08T07:29:18.848Z,99661.38
2023-01-08T07:31:46.277Z,99664.13
2023-01-08T07:34:15.339Z,99654.03
2023-01-08T07:36:43.129Z,99658.13
2023-01-08T07:39:10.509Z,99662.03
2023-01-08T07:41:37.907Z,99656.09
2023-01-08T07:44:07.210Z,99656.63
2023-01-08T07:46:34.619Z,99650.97
2023-01-08T07:49:02.070Z,99646.22
2023-01-08T07:51:29.763Z,99645.75
2023-01-08T07:53:57.257Z,99647.94
2023-01-08T07:56:25.722Z,99644.75
2023-01-08T07:58:53.466Z,99640.41
2023-01-08T08:01:22.304Z,99644.09
2023-01-08T08:03:49.871Z,99644.31
2023-01-08T08:06:17.248Z,99636.31
2023-01-08T08:08:44.756Z,99641.41
2023-01-08T08:11:12.239Z,99650.56
2023-01-08T08:13:44.887Z,99644.75
2023-01-08T08:16:13.357Z,99641.72
2023-01-08T08:18:42.178Z,99643.63
2023-01-08T08:21:09.548Z,99634.78
2023-01-08T08:23:37.082Z,99632.94
2023-01-08T08:26:05.343Z,99622.84
2023-01-08T08:28:32.743Z,99622.63
2023-01-08T08:31:00.196Z,99622.06
2023-01-08T08:33:27.574Z,99624.25
2023-01-08T08:35:56.259Z,99632.72
2023-01-08T08:38:24.907Z,99626.25
2023-01-08T08:40:52.280Z,99619.09
2023-01-08T08:43:19.956Z,99611.56
2023-01-08T08:45:47.403Z,99607.34
2023-01-08T08:48:16.671Z,99598.06
2023-01-08T08:50:44.369Z,99587.72
2023-01-08T08:53:13.061Z,99579.63
2023-01-08T08:55:40.508Z,99583.41
2023-01-08T08:58:10.701Z,99586.91
2023-01-08T09:00:38.220Z,99586.06
2023-01-08T09:03:06.284Z,99583.47
2023-01-08T09:05:36.924Z,99589.03
2023-01-08T09:08:04.660Z,99592.00
2023-01-08T09:10:33.387Z,99586.66
2023-01-08T09:13:00.818Z,99589.78
2023-01-08T09:15:28.227Z,99595.66
2023-01-08T09:17:56.074Z,99589.25
2023-01-08T09:20:23.939Z,99586.91
2023-01-08T09:22:51.370Z,99578.34
2023-01-08T09:25:19.207Z,99566.19
2023-01-08T09:27:47.922Z,99558.94
2023-01-08T09:30:15.449Z,99549.53
2023-01-08T09:32:42.836Z,99549.94
2023-01-08T09:35:10.742Z,99555.53
2023-01-08T09:37:38.176Z,99562.56
2023-01-08T09:40:06.551Z,99556.91
2023-01-08T09:42:35.414Z,99553.81
2023-01-08T09:45:05.091Z,99547.72
2023-01-08T09:47:38.284Z,99550.91
2023-01-08T09:50:10.844Z,99562.44
2023-01-08T09:52:39.292Z,99553.19
2023-01-08T09:55:13.469Z,99552.94
2023-01-08T09:57:41.160Z,99558.19
2023-01-08T10:00:17.157Z,99551.03
2023-01-08T10:02:44.687Z,99543.38
2023-01-08T10:05:14.637Z,99541.22
2023-01-08T10:07:42.061Z,99547.19
2023-01-08T10:10:18.231Z,99548.91
2023-01-08T10:12:46.646Z,99554.88
2023-01-08T10:15:18.687Z,99549.75
2023-01-08T10:17:48.135Z,99547.72
2023-01-08T10:20:17.218Z,99551.56
2023-01-08T10:22:45.066Z,99550.63
2023-01-08T10:25:14.481Z,99560.00
2023-01-08T10:27:50.368Z,99549.09
2023-01-08T10:30:22.947Z,99534.47
2023-01-08T10:32:54.738Z,99537.91
2023-01-08T10:35:25.331Z,99533.63
2023-01-08T10:37:53.420Z,99520.28
2023-01-08T10:40:23.991Z,99524.34
2023-01-08T10:42:52.829Z,99523.63
2023-01-08T10:45:24.256Z,99526.81
2023-01-08T10:47:56.017Z,99515.81
2023-01-08T10:50:26.532Z,99503.88
2023-01-08T10:52:56.749Z,99500.88
2023-01-08T10:55:26.772Z,99502.56
2023-01-08T10:57:59.622Z,99502.56
2023-01-08T11:00:30.668Z,99498.50
2023-01-08T11:03:00.251Z,99484.81
2023-01-08T11:05:35.723Z,99486.63
2023-01-08T11:08:06.828Z,99481.81
2023-01-08T11:10:35.633Z,99484.50
2023-01-08T11:13:07.068Z,99479.38
2023-01-08T11:15:38.938Z,99478.94
2023-01-08T11:18:10.705Z,99483.78
2023-01-08T11:20:41.888Z,99482.03
2023-01-08T11:23:17.289Z,99486.81
2023-01-08T11:25:49.774Z,99479.78
2023-01-08T11:28:24.377Z,99479.69
2023-01-08T11:31:00.888Z,99487.56
2023-01-08T11:33:33.787Z,99499.66
2023-01-08T11:36:05.630Z,99496.47
2023-01-08T11:38:33.348Z,99497.22
2023-01-08T11:41:13.967Z,99493.13
2023-01-08T11:43:56.473Z,99486.41
2023-01-08T11:46:38.254Z,99470.88
2023-01-08T11:49:28.500Z,99474.09
2023-01-08T11:52:10.024Z,99462.78
2023-01-08T11:54:56.391Z,99450.41
2023-01-08T11:57:42.012Z,99437.16
2023-01-08T12:00:23.362Z,99440.47
2023-01-08T12:02:55.572Z,99428.84
2023-01-08T12:05:28.021Z,99429.72
2023-01-08T12:08:01.475Z,99424.38
2023-01-08T12:10:38.687Z,99428.50
2023-01-08T12:13:23.385Z,99428.13
2023-01-08T12:16:01.904Z,99440.09
2023-01-08T12:18:56.734Z,99423.63
2023-01-08T12:21:32.250Z,99427.78
2023-01-08T12:24:23.171Z,99425.59
2023-01-08T12:27:00.377Z,99421.66
2023-01-08T12:29:43.474Z,99418.44
2023-01-08T12:32:29.638Z,99405.66
2023-01-08T12:35:02.754Z,99411.00
2023-01-08T12:37:35.827Z,99413.63
2023-01-08T12:40:12.896Z,99418.97
2023-01-08T12:42:47.203Z,99417.63
2023-01-08T12:45:22.926Z,99418.97
2023-01-08T12:47:57.657Z,99424.38
2023-01-08T12:50:43.730Z,99418.63
2023-01-08T12:53:20.961Z,99419.69
2023-01-08T12:55:59.605Z,99412.09
2023-01-08T12:58:35.346Z,99402.94
2023-01-08T13:01:16.375Z,99404.19
2023-01-08T13:03:45.605Z,99400.41
2023-01-08T13:06:16.781Z,99402.50
2023-01-08T13:08:49.829Z,99405.91
2023-01-08T13:11:26.711Z,99408.03
2023-01-08T13:14:01.407Z,99396.41
2023-01-08T13:16:29.076Z,99395.38
2023-01-08T13:18:58.084Z,99387.34
2023-01-08T13:21:33.810Z,99390.38
2023-01-08T13:24:03.751Z,99385.53
2023-01-08T13:26:33.039Z,99388.66
2023-01-08T13:29:25.086Z,99391.06
2023-01-08T13:31:56.635Z,99387.84
2023-01-08T13:34:36.956Z,99389.56
2023-01-08T13:37:11.415Z,99384.75
2023-01-08T13:39:44.025Z,99384.84
2023-01-08T13:42:24.181Z,99382.63
2023-01-08T13:44:53.392Z,99389.66
2023-01-08T13:47:28.568Z,99382.81
2023-01-08T13:49:56.999Z,99379.19
2023-01-08T13:52:42.170Z,99377.63
2023-01-08T13:55:17.137Z,99372.78
2023-01-08T13:57:49.365Z,99369.91
2023-01-08T14:00:24.719Z,99361.44
2023-01-08T14:02:54.933Z,99362.75
2023-01-08T14:05:27.811Z,99371.94
2023-01-08T14:07:56.846Z,99371.47
2023-01-08T14:10:25.526Z,99356.75
2023-01-08T14:12:53.382Z,99357.94
2023-01-08T14:15:26.532Z,99359.75
2023-01-08T14:17:54.913Z,99359.13
2023-01-08T14:20:29.909Z,99371.03
2023-01-08T14:22:58.879Z,99367.81
2023-01-08T14:25:26.518Z,99367.31
2023-01-08T14:27:59.543Z,99371.75
2023-01-08T14:30:29.053Z,99382.31
2023-01-08T14:32:58.232Z,99377.16
2023-01-08T14:35:32.515Z,99371.91
2023-01-08T14:38:02.987Z,99380.19
2023-01-08T14:40:33.925Z,99382.84
2023-01-08T14:43:08.668Z,99367.06
2023-01-08T14:45:38.614Z,99369.34
2023-01-08T14:48:17.597Z,99368.69
2023-01-08T14:50:54.649Z,99358.44
2023-01-08T14:53:28.483Z,99358.75
2023-01-08T14:55:57.871Z,99355.81
2023-01-08T14:58:27.143Z,99345.69
2023-01-08T15:00:58.443Z,99350.91
2023-01-08T15:03:34.871Z,99353.00
2023-01-08T15:06:02.704Z,99356.16
2023-01-08T15:08:37.005Z,99357.75
2023-01-08T15:11:06.842Z,99353.59
2023-01-08T15:13:37.869Z,99360.75
2023-01-08T15:16:10.929Z,99359.06
2023-01-08T15:18:44.196Z,99372.50
2023-01-08T15:21:11.782Z,99370.78
2023-01-08T15:23:43.739Z,99374.09
2023-01-08T15:26:12.446Z,99375.16
2023-01-08T15:28:45.596Z,99367.06
2023-01-08T15:31:13.033Z,99376.03
2023-01-08T15:33:40.475Z,99382.09
2023-01-08T15:36:08.169Z,99374.31
2023-01-08T15:38:35.540Z,99377.09
2023-01-08T15:41:04.210Z,99384.75
2023-01-08T15:43:44.962Z,99387.34
2023-01-08T15:46:12.644Z,99397.69
2023-01-08T15:48:40.026Z,99392.06
2023-01-08T15:51:07.586Z,99385.75
2023-01-08T15:53:34.984Z,99380.31
2023-01-08T15:56:03.799Z,99383.72
2023-01-08T15:58:31.432Z,99383.41
2023-01-08T16:00:58.821Z,99381.91
2023-01-08T16:03:26.567Z,99380.72
2023-01-08T16:05:53.961Z,99377.31
2023-01-08T16:08:21.349Z,99386.91
2023-01-08T16:10:53.261Z,99391.59
2023-01-08T16:13:21.977Z,99380.41
2023-01-08T16:15:49.413Z,99376.91
2023-01-08T16:18:17.179Z,99367.06
2023-01-08T16:20:44.582Z,99363.88
2023-01-08T16:23:12.465Z,99348.16
2023-01-08T16:25:40.540Z,99342.75
2023-01-08T16:28:08.350Z,99345.09
2023-01-08T16:30:37.166Z,99352.56
2023-01-08T16:33:04.596Z,99348.06
2023-01-08T16:35:31.968Z,99356.22
2023-01-08T16:37:59.378Z,99351.72
2023-01-08T16:40:26.765Z,99352.56
2023-01-08T16:42:54.143Z,99356.84
2023-01-08T16:45:21.553Z,99360.66
2023-01-08T16:47:50.645Z,99353.41
2023-01-08T16:50:18.109Z,99349.91
2023-01-08T16:52:45.515Z,99346.63
2023-01-08T16:55:12.865Z,99343.94
2023-01-08T16:57:40.239Z,99346.81
2023-01-08T17:00:08.977Z,99333.38
2023-01-08T17:02:36.419Z,99330.63
2023-01-08T17:05:06.064Z,99342.31
2023-01-08T17:07:35.139Z,99334.56
2023-01-08T17:10:02.734Z,99347.34
2023-01-08T17:12:31.321Z,99356.31
2023-01-08T17:14:58.709Z,99350.22
2023-01-08T17:17:26.095Z,99350.75
2023-01-08T17:20:22.361Z,99346.72
2023-01-08T17:22:51.174Z,99357.28
2023-01-08T17:25:18.552Z,99341.47
2023-01-08T17:27:45.987Z,99333.59
2023-01-08T17:30:14.784Z,99337.00
2023-01-08T17:32:42.607Z,99328.56
2023-01-08T17:35:10.376Z,99323.75
2023-01-08T17:37:38.011Z,99323.75
2023-01-08T17:40:08.271Z,99318.31
2023-01-08T17:42:35.644Z,99322.47
2023-01-08T17:45:05.605Z,99304.88
2023-01-08T17:47:33.139Z,99304.56
2023-01-08T17:50:02.086Z,99295.81
2023-01-08T17:52:29.935Z,99291.53
2023-01-08T17:54:57.332Z,99277.56
2023-01-08T17:57:26.430Z,99281.75
2023-01-08T17:59:53.920Z,99279.53
2023-01-08T18:02:21.460Z,99278.13
2023-01-08T18:04:49.240Z,99258.72
2023-01-08T18:07:16.652Z,99270.69
2023-01-08T18:09:44.748Z,99256.44
2023-01-08T18:12:12.545Z,99252.47
2023-01-08T18:14:41.891Z,99258.69
2023-01-08T18:17:09.333Z,99251.19
2023-01-08T18:19:36.738Z,99244.06
2023-01-08T18:22:04.150Z,99235.13
2023-01-08T18:24:31.590Z,99234.47
2023-01-08T18:26:59.058Z,99234.28
2023-01-08T18:29:26.451Z,99236.09
2023-01-08T18:31:55.256Z,99221.03
2023-01-08T18:34:22.714Z,99223.72
2023-01-08T18:36:50.134Z,99227.00
2023-01-08T18:39:17.526Z,99222.34
2023-01-08T18:42:02.319Z,99235.97
2023-01-08T18:44:29.677Z,99220.00
2023-01-08T18:46:58.429Z,99224.56
2023-01-08T18:49:27.451Z,99231.06
2023-01-08T18:51:54.829Z,99237.91
2023-01-08T18:54:22.180Z,99232.34
2023-01-08T18:56:51.064Z,99223.94
2023-01-08T18:59:18.519Z,99222.13
2023-01-08T19:01:46.022Z,99215.00
2023-01-08T19:04:18.357Z,99207.84
2023-01-08T19:06:45.872Z,99196.16
2023-01-08T19:09:13.283Z,99193.25
2023-01-08T19:11:42.200Z,99207.66
2023-01-08T19:14:11.629Z,99197.75
2023-01-08T19:16:39.034Z,99212.84
2023-01-08T19:19:06.886Z,99212.97
2023-01-08T19:21:36.463Z,99212.84
2023-01-08T19:24:03.830Z,99211.16
2023-01-08T19:26:31.305Z,99207.19
2023-01-08T19:28:58.708Z,99206.16
2023-01-08T19:31:26.176Z,99201.03
2023-01-08T19:33:53.635Z,99203.16
2023-01-08T19:36:21.197Z,99196.34
2023-01-08T19:38:50.048Z,99204.66
2023-01-08T19:41:35.187Z,99207.84
2023-01-08T19:44:02.580Z,99195.69
2023-01-08T19:46:30.722Z,99206.16
2023-01-08T19:48:59.108Z,99204.25
2023-01-08T19:51:27.539Z,99202.44
2023-01-08T19:53:57.985Z,99191.88
2023-01-08T19:56:25.675Z,99184.84
2023-01-08T19:58:53.145Z,99189.94
2023-01-08T20:01:22.802Z,99187.50
2023-01-08T20:03:50.759Z,99176.84
2023-01-08T20:06:20.694Z,99175.66
2023-01-08T20:08:48.206Z,99177.16
2023-01-08T20:11:18.709Z,99164.81
2023-01-08T20:13:46.318Z,99155.84
2023-01-08T20:16:16.108Z,99163.97
2023-01-08T20:18:43.989Z,99153.59
2023-01-08T20:21:15.333Z,99140.38
2023-01-08T20:23:43.848Z,99140.50
2023-01-08T20:26:14.979Z,99149.03
2023-01-08T20:28:45.176Z,99132.69
2023-01-08T20:31:14.764Z,99130.03
2023-01-08T20:33:43.003Z,99133.03
2023-01-08T20:36:11.725Z,99123.09
2023-01-08T20:38:39.304Z,99122.03
2023-01-08T20:41:06.831Z,99111.91
2023-01-08T20:43:34.691Z,99104.56
2023-01-08T20:46:04.577Z,99107.63
2023-01-08T20:48:37.064Z,99112.22
2023-01-08T20:51:12.572Z,99111.03
2023-01-08T20:53:40.465Z,99110.06
2023-01-08T20:56:10.487Z,99114.88
2023-01-08T20:58:39.630Z,99117.63
2023-01-08T21:01:10.255Z,99130.63
2023-01-08T21:03:38.604Z,99130.63
2023-01-08T21:06:07.622Z,99123.38
2023-01-08T21:08:35.508Z,99114.66
2023-01-08T21:11:05.348Z,99109.22
2023-01-08T21:13:33.372Z,99109.63
2023-01-08T21:16:01.908Z,99117.84
2023-01-08T21:18:31.001Z,99109.22
2023-01-08T21:20:59.900Z,99110.50
2023-01-08T21:23:27.888Z,99112.13
2023-01-08T21:25:56.461Z,99096.31
2023-01-08T21:28:24.145Z,99099.47
2023-01-08T21:30:51.562Z,99094.41
2023-01-08T21:33:19.670Z,99086.50
2023-01-08T21:35:48.756Z,99073.75
2023-01-08T21:38:16.120Z,99072.06
2023-01-08T21:40:43.479Z,99057.78
2023-01-08T21:43:30.756Z,99045.53
2023-01-08T22:00:31.270Z,99035.91
2023-01-08T22:02:58.955Z,99028.66
2023-01-08T22:05:26.735Z,99026.66
2023-01-08T22:07:54.309Z,99023.84
2023-01-08T22:10:21.841Z,99026.41
2023-01-08T22:12:49.260Z,99021.81
2023-01-08T22:15:16.867Z,99014.81
2023-01-08T22:17:45.767Z,99013.94
2023-01-08T22:20:13.778Z,99004.75
2023-01-08T22:22:42.464Z,99013.50
2023-01-08T22:25:10.249Z,99006.69
2023-01-08T22:27:37.749Z,99008.91
2023-01-08T22:30:08.392Z,99000.91
2023-01-08T22:32:35.925Z,98998.50
2023-01-08T22:35:04.888Z,98993.16
2023-01-08T22:37:32.270Z,98988.88
2023-01-08T22:40:00.667Z,98992.19
2023-01-08T22:42:28.083Z,98980.06
2023-01-08T22:44:55.503Z,98977.91
2023-01-08T22:47:22.913Z,98982.94
2023-01-08T22:49:50.580Z,98960.13
2023-01-08T22:52:19.328Z,98964.47
2023-01-08T22:54:46.797Z,98954.72
2023-01-08T22:57:14.234Z,98952.97
2023-01-08T22:59:41.605Z,98954.22
2023-01-08T23:02:08.985Z,98960.78
2023-01-08T23:04:36.351Z,98953.13
2023-01-08T23:07:03.891Z,98949.38
2023-01-08T23:09:32.573Z,98952.03
2023-01-08T23:12:01.779Z,98955.25
2023-01-08T23:14:29.641Z,98950.13
2023-01-08T23:16:56.988Z,98944.78
2023-01-08T23:19:24.377Z,98947.94
2023-01-08T23:21:51.730Z,98935.59
2023-01-08T23:24:19.112Z,98936.69
2023-01-08T23:26:47.802Z,98935.97
2023-01-08T23:29:15.277Z,98931.00
2023-01-08T23:31:44.097Z,98940.19
2023-01-08T23:34:11.815Z,98931.84
2023-01-08T23:36:40.621Z,98930.03
2023-01-08T23:39:09.185Z,98917.44
2023-01-08T23:41:36.574Z,98917.06
2023-01-08T23:44:07.353Z,98911.53
2023-01-08T23:46:35.299Z,98907.78
2023-01-08T23:49:02.910Z,98903.97
2023-01-08T23:51:30.492Z,98907.13
2023-01-08T23:53:58.018Z,98898.19
2023-01-08T23:56:25.831Z,98893.72
2023-01-08T23:58:53.842Z,98892.13
